Time;durP1;ratioP1;P1;durP2;ratioP2;P2;SDS_P1;SDS_P2;PMS_P1;PMS_P2;Temp;Humidity;BMP_temperature;BMP_pressure;BME280_temperature;BME280_humidity;BME280_pressure;Samples;Min_cycle;Max_cycle;Signal;HPM_P1;HPM_P2
2023/09/03 00:00:38;;;;;;;54.20;30.60;;;16.20;99.90;;;;;;5016498;28;20148;-57
2023/09/03 00:03:04;;;;;;;56.83;32.95;;;16.00;99.90;;;;;;5021461;28;20656;-57
2023/09/03 00:05:29;;;;;;;55.22;31.90;;;16.10;99.90;;;;;;5014954;28;20041;-58
2023/09/03 00:07:55;;;;;;;57.70;33.10;;;16.10;99.90;;;;;;5013161;28;20038;-55
2023/09/03 00:10:21;;;;;;;54.03;32.35;;;16.00;99.90;;;;;;5015129;28;22412;-57
2023/09/03 00:12:46;;;;;;;57.35;33.42;;;16.10;99.90;;;;;;5021266;28;20066;-56
2023/09/03 00:15:12;;;;;;;53.45;32.90;;;16.20;99.90;;;;;;5020158;28;20038;-56
2023/09/03 00:17:38;;;;;;;62.38;34.90;;;16.10;99.90;;;;;;5022667;28;20724;-56
2023/09/03 00:20:05;;;;;;;61.00;35.53;;;16.10;99.90;;;;;;5001098;28;20034;-57
2023/09/03 00:22:30;;;;;;;58.30;34.80;;;16.10;99.90;;;;;;5018813;28;20145;-56
2023/09/03 00:24:56;;;;;;;57.00;33.58;;;16.00;99.90;;;;;;5021543;28;20049;-57
2023/09/03 00:27:22;;;;;;;55.75;33.22;;;15.90;99.90;;;;;;5014086;28;20045;-56
2023/09/03 00:29:47;;;;;;;62.67;34.85;;;15.90;99.90;;;;;;5021479;28;20389;-57
2023/09/03 00:32:13;;;;;;;62.30;37.35;;;15.90;99.90;;;;;;5015858;28;20042;-57
2023/09/03 00:34:38;;;;;;;54.83;33.40;;;16.00;99.90;;;;;;5004421;28;20109;-57
2023/09/03 00:37:05;;;;;;;60.95;35.13;;;16.00;99.90;;;;;;5018518;28;20029;-57
2023/09/03 00:39:30;;;;;;;66.38;38.33;;;16.00;99.90;;;;;;5022962;28;20030;-57
2023/09/03 00:41:56;;;;;;;67.82;37.90;;;16.00;99.90;;;;;;5019828;28;20045;-55
2023/09/03 00:44:21;;;;;;;67.30;38.05;;;16.00;99.90;;;;;;5019229;28;20068;-57
2023/09/03 00:46:47;;;;;;;66.88;37.70;;;16.10;99.90;;;;;;5020810;28;20026;-56
2023/09/03 00:49:19;;;;;;;60.05;35.83;;;16.10;99.90;;;;;;5018766;28;20053;-57
2023/09/03 00:51:45;;;;;;;62.00;35.38;;;16.00;99.90;;;;;;5017485;28;20037;-57
2023/09/03 00:54:12;;;;;;;65.05;35.83;;;15.80;99.90;;;;;;5011998;28;20044;-56
2023/09/03 00:56:38;;;;;;;57.20;34.80;;;15.80;99.90;;;;;;5015467;28;20278;-57
2023/09/03 00:59:06;;;;;;;61.30;36.75;;;15.80;99.90;;;;;;5020109;28;20503;-57
2023/09/03 01:01:32;;;;;;;62.17;36.00;;;15.90;99.90;;;;;;5013534;28;20123;-56
2023/09/03 01:03:57;;;;;;;75.05;39.65;;;15.90;99.90;;;;;;5011289;28;20042;-58
2023/09/03 01:06:25;;;;;;;58.45;35.80;;;15.90;99.90;;;;;;5018861;28;20052;-56
2023/09/03 01:08:51;;;;;;;71.72;38.83;;;15.80;99.90;;;;;;5009524;28;20533;-57
2023/09/03 01:11:46;;;;;;;73.28;40.63;;;16.00;99.90;;;;;;5018195;28;20038;-56
2023/09/03 01:14:28;;;;;;;66.55;37.75;;;16.00;99.90;;;;;;4994649;28;20115;-56
2023/09/03 01:17:13;;;;;;;68.03;38.20;;;16.00;99.90;;;;;;5010164;28;20040;-57
2023/09/03 01:20:05;;;;;;;69.40;39.70;;;16.00;99.90;;;;;;5017708;28;20085;-56
2023/09/03 01:22:43;;;;;;;63.40;36.47;;;16.00;99.90;;;;;;5015617;28;20042;-57
2023/09/03 01:25:15;;;;;;;64.25;37.13;;;15.90;99.90;;;;;;5013034;28;20612;-57
2023/09/03 01:27:57;;;;;;;76.28;38.72;;;15.90;99.90;;;;;;5010216;28;20091;-56
2023/09/03 01:30:23;;;;;;;67.28;36.55;;;15.90;99.90;;;;;;5020857;28;20033;-56
2023/09/03 01:32:50;;;;;;;64.10;36.42;;;15.90;99.90;;;;;;5019284;28;20141;-57
2023/09/03 01:35:18;;;;;;;64.32;37.50;;;15.90;99.90;;;;;;5016807;28;20038;-56
2023/09/03 01:37:44;;;;;;;58.10;34.15;;;15.80;99.90;;;;;;5017971;28;20042;-56
2023/09/03 01:40:10;;;;;;;55.95;33.55;;;15.80;99.90;;;;;;5017494;28;20034;-57
2023/09/03 01:42:35;;;;;;;58.20;33.63;;;15.60;99.90;;;;;;5023198;28;20699;-57
2023/09/03 01:45:02;;;;;;;59.97;34.20;;;15.50;99.90;;;;;;5013011;28;20030;-56
2023/09/03 01:47:32;;;;;;;57.50;33.80;;;15.50;99.90;;;;;;5016333;28;20066;-56
2023/09/03 01:50:17;;;;;;;62.38;35.95;;;15.70;99.90;;;;;;5013789;28;20092;-57
2023/09/03 01:52:54;;;;;;;61.38;36.00;;;15.70;99.90;;;;;;5019247;28;20098;-56
2023/09/03 01:55:20;;;;;;;58.60;35.25;;;15.70;99.90;;;;;;5020411;28;20030;-57
2023/09/03 01:57:54;;;;;;;61.00;33.60;;;15.50;99.90;;;;;;5015279;28;20239;-56
2023/09/03 02:00:21;;;;;;;60.17;33.95;;;15.40;99.90;;;;;;5012583;28;20494;-55
2023/09/03 02:02:48;;;;;;;64.25;36.13;;;15.50;99.90;;;;;;5011655;28;20175;-57
2023/09/03 02:05:14;;;;;;;67.07;37.92;;;15.70;99.90;;;;;;5012832;28;20048;-56
2023/09/03 02:07:40;;;;;;;72.15;40.42;;;15.80;99.90;;;;;;5008811;28;20552;-56
2023/09/03 02:10:06;;;;;;;67.05;39.10;;;15.80;99.90;;;;;;5019594;28;20240;-57
2023/09/03 02:12:32;;;;;;;70.07;40.78;;;15.60;99.90;;;;;;5018405;28;20524;-56
2023/09/03 02:14:58;;;;;;;64.60;36.42;;;15.70;99.90;;;;;;5013697;28;20038;-56
2023/09/03 02:17:24;;;;;;;68.05;36.47;;;15.60;99.90;;;;;;5016620;28;20040;-56
2023/09/03 02:19:52;;;;;;;63.67;35.97;;;15.50;99.90;;;;;;5019945;28;20449;-56
2023/09/03 02:22:18;;;;;;;54.47;34.15;;;15.40;99.90;;;;;;5017747;28;20490;-54
2023/09/03 02:24:44;;;;;;;58.67;34.80;;;15.30;99.90;;;;;;5013584;28;20042;-55
2023/09/03 02:27:10;;;;;;;56.85;32.00;;;15.30;99.90;;;;;;5020152;28;20396;-57
2023/09/03 02:29:38;;;;;;;60.85;33.55;;;15.30;99.90;;;;;;5017732;28;20484;-56
2023/09/03 02:32:04;;;;;;;57.15;33.38;;;15.30;99.90;;;;;;5016971;28;20045;-55
2023/09/03 02:34:30;;;;;;;47.80;30.80;;;15.40;99.90;;;;;;4995022;28;20179;-55
2023/09/03 02:36:55;;;;;;;51.38;30.27;;;15.30;99.90;;;;;;5020366;28;20117;-55
2023/09/03 02:39:21;;;;;;;47.28;28.85;;;15.20;99.90;;;;;;5015239;28;20351;-56
2023/09/03 02:41:46;;;;;;;49.42;30.60;;;15.10;99.90;;;;;;5025310;28;20056;-55
2023/09/03 02:44:12;;;;;;;52.63;30.92;;;15.00;99.90;;;;;;5019721;28;20231;-55
2023/09/03 02:46:38;;;;;;;56.95;33.40;;;15.10;99.90;;;;;;5018958;28;20033;-57
2023/09/03 02:49:03;;;;;;;56.22;31.90;;;15.10;99.90;;;;;;5015607;28;20132;-57
2023/09/03 02:51:29;;;;;;;44.72;28.20;;;15.10;99.90;;;;;;5022785;28;20060;-56
2023/09/03 02:53:55;;;;;;;50.95;29.92;;;15.00;99.90;;;;;;5018687;28;20171;-57
2023/09/03 02:56:22;;;;;;;56.88;32.28;;;14.80;99.90;;;;;;5013586;28;20049;-57
2023/09/03 02:58:48;;;;;;;51.20;31.88;;;15.00;99.90;;;;;;5018658;28;20102;-56
2023/09/03 03:01:16;;;;;;;55.63;31.42;;;15.20;99.90;;;;;;5017178;28;20037;-56
2023/09/03 03:03:41;;;;;;;50.90;31.33;;;15.20;99.90;;;;;;5020204;28;20056;-55
2023/09/03 03:06:07;;;;;;;60.65;33.22;;;15.10;99.90;;;;;;5015515;28;20359;-57
2023/09/03 03:08:33;;;;;;;61.13;35.13;;;15.20;99.90;;;;;;5013896;28;20132;-57
2023/09/03 03:11:11;;;;;;;53.40;29.65;;;15.20;99.90;;;;;;5016442;28;20073;-57
2023/09/03 03:13:42;;;;;;;58.30;32.55;;;15.30;99.90;;;;;;5018288;28;20053;-56
2023/09/03 03:16:09;;;;;;;48.85;30.13;;;15.10;99.90;;;;;;5020825;28;20037;-56
2023/09/03 03:18:37;;;;;;;52.50;31.48;;;14.90;99.90;;;;;;5019788;28;20053;-56
2023/09/03 03:21:10;;;;;;;52.05;31.38;;;14.90;99.90;;;;;;5021128;28;20060;-57
2023/09/03 03:23:37;;;;;;;57.88;30.70;;;14.90;99.90;;;;;;5012083;28;20441;-56
2023/09/03 03:26:03;;;;;;;48.83;29.27;;;15.00;99.90;;;;;;5010924;28;20461;-56
2023/09/03 03:28:33;;;;;;;49.58;29.58;;;14.90;99.90;;;;;;5011724;28;20472;-56
2023/09/03 03:31:15;;;;;;;51.47;29.35;;;14.90;99.90;;;;;;5018670;28;20443;-56
2023/09/03 03:33:42;;;;;;;45.15;27.33;;;14.80;99.90;;;;;;5014418;28;20465;-56
2023/09/03 03:36:16;;;;;;;41.92;26.58;;;14.80;99.90;;;;;;5015613;28;20120;-56
2023/09/03 03:38:42;;;;;;;41.20;25.70;;;14.80;99.90;;;;;;5018542;28;20354;-55
2023/09/03 03:41:19;;;;;;;41.50;25.23;;;14.80;99.90;;;;;;5015980;28;20037;-55
2023/09/03 03:43:47;;;;;;;37.13;24.05;;;14.80;99.90;;;;;;5010402;28;20088;-56
2023/09/03 03:46:17;;;;;;;47.88;27.48;;;14.60;99.90;;;;;;5008441;28;20049;-56
2023/09/03 03:48:43;;;;;;;42.70;27.08;;;14.70;99.90;;;;;;5018049;28;20137;-55
2023/09/03 03:51:09;;;;;;;41.78;26.15;;;14.80;99.90;;;;;;5013649;28;20037;-56
2023/09/03 03:53:35;;;;;;;40.65;26.52;;;14.70;99.90;;;;;;5018189;28;20339;-56
2023/09/03 03:56:06;;;;;;;42.50;25.38;;;14.60;99.90;;;;;;5016480;28;20407;-56
2023/09/03 03:58:33;;;;;;;40.63;24.88;;;14.80;99.90;;;;;;5010440;28;20042;-57
2023/09/03 04:00:59;;;;;;;44.85;26.30;;;14.60;99.90;;;;;;5022540;28;20391;-56
2023/09/03 04:03:28;;;;;;;48.90;27.65;;;14.50;99.90;;;;;;5021152;28;20036;-57
2023/09/03 04:06:00;;;;;;;53.80;30.33;;;14.60;99.90;;;;;;5021497;28;20498;-56
2023/09/03 04:08:34;;;;;;;41.25;26.33;;;14.70;99.90;;;;;;5016653;28;20144;-56
2023/09/03 04:11:01;;;;;;;47.08;27.35;;;14.60;99.90;;;;;;5014003;28;20033;-56
2023/09/03 04:13:27;;;;;;;46.10;28.08;;;14.60;99.90;;;;;;5019775;28;20061;-55
2023/09/03 04:15:57;;;;;;;43.15;27.23;;;14.60;99.90;;;;;;5016356;28;20087;-55
2023/09/03 04:18:23;;;;;;;41.97;25.05;;;14.60;99.90;;;;;;5015647;28;20550;-57
2023/09/03 04:20:53;;;;;;;46.22;28.10;;;14.40;99.90;;;;;;5019594;28;20569;-56
2023/09/03 04:23:20;;;;;;;44.88;27.50;;;14.40;99.90;;;;;;5012738;28;20030;-57
2023/09/03 04:25:45;;;;;;;42.63;27.42;;;14.50;99.90;;;;;;5013725;28;20058;-57
2023/09/03 04:28:11;;;;;;;43.83;26.73;;;14.40;99.90;;;;;;5015405;28;20040;-56
2023/09/03 04:30:38;;;;;;;43.47;28.40;;;14.30;99.90;;;;;;5019616;28;20665;-56
2023/09/03 04:33:06;;;;;;;42.42;27.80;;;14.40;99.90;;;;;;5014904;28;20044;-56
2023/09/03 04:35:32;;;;;;;44.38;28.27;;;14.30;99.90;;;;;;5011988;28;20496;-56
2023/09/03 04:37:57;;;;;;;42.70;26.70;;;14.30;99.90;;;;;;5021127;28;20033;-56
2023/09/03 04:40:24;;;;;;;39.78;25.55;;;14.20;99.90;;;;;;5015305;28;20472;-56
2023/09/03 04:42:49;;;;;;;43.20;25.70;;;14.10;99.90;;;;;;5022178;28;20731;-56
2023/09/03 04:45:15;;;;;;;43.78;28.23;;;14.20;99.90;;;;;;5015968;28;20036;-56
2023/09/03 04:47:41;;;;;;;45.47;27.63;;;14.30;99.90;;;;;;5012494;28;20049;-56
2023/09/03 04:50:07;;;;;;;45.60;28.02;;;14.30;99.90;;;;;;5015546;28;20049;-56
2023/09/03 04:52:34;;;;;;;42.83;27.60;;;14.30;99.90;;;;;;5021366;28;20578;-57
2023/09/03 04:55:00;;;;;;;46.03;29.95;;;14.30;99.90;;;;;;5015216;28;20058;-55
2023/09/03 04:57:25;;;;;;;47.38;29.95;;;14.40;99.90;;;;;;5014108;28;20033;-56
2023/09/03 04:59:52;;;;;;;39.75;25.35;;;14.50;99.90;;;;;;5013142;28;20030;-56
2023/09/03 05:02:17;;;;;;;40.45;26.45;;;14.30;99.90;;;;;;5016962;28;20366;-56
2023/09/03 05:04:43;;;;;;;42.25;27.25;;;14.10;99.90;;;;;;5016839;28;20040;-57
2023/09/03 05:07:08;;;;;;;42.40;28.20;;;14.20;99.90;;;;;;5011898;28;20723;-57
2023/09/03 05:09:34;;;;;;;44.45;28.15;;;14.30;99.90;;;;;;5000216;28;20579;-56
2023/09/03 05:11:59;;;;;;;42.95;26.25;;;14.30;99.90;;;;;;5018446;28;20033;-55
2023/09/03 05:14:25;;;;;;;45.92;30.00;;;14.30;99.90;;;;;;5016962;28;20037;-56
2023/09/03 05:16:51;;;;;;;47.33;28.15;;;14.30;99.90;;;;;;5019655;28;20037;-56
2023/09/03 05:19:16;;;;;;;48.85;28.92;;;14.30;99.90;;;;;;5015466;28;20485;-56
2023/09/03 05:21:42;;;;;;;38.20;25.85;;;14.30;99.90;;;;;;5014383;28;20030;-56
2023/09/03 05:24:08;;;;;;;39.30;25.27;;;14.30;99.90;;;;;;5014555;28;20518;-56
2023/09/03 05:26:34;;;;;;;43.25;27.48;;;14.30;99.90;;;;;;5021602;28;20080;-55
2023/09/03 05:28:59;;;;;;;47.42;30.55;;;14.40;99.90;;;;;;5024924;28;20407;-55
2023/09/03 05:31:25;;;;;;;41.92;26.08;;;14.60;99.90;;;;;;5009995;28;20041;-56
2023/09/03 05:33:51;;;;;;;41.95;26.60;;;14.40;99.90;;;;;;5018163;28;20076;-57
2023/09/03 05:36:16;;;;;;;44.90;27.52;;;14.30;99.90;;;;;;5009616;28;20041;-56
2023/09/03 05:38:42;;;;;;;41.65;26.73;;;14.40;99.90;;;;;;5013135;28;20515;-56
2023/09/03 05:41:11;;;;;;;38.10;26.17;;;14.40;99.90;;;;;;4989922;28;20046;-57
2023/09/03 05:43:38;;;;;;;49.15;29.25;;;14.50;99.90;;;;;;5009965;28;20494;-56
2023/09/03 05:46:04;;;;;;;45.45;28.83;;;14.70;99.90;;;;;;5020493;28;20069;-57
2023/09/03 05:48:30;;;;;;;45.50;29.50;;;14.70;99.90;;;;;;5015270;28;20611;-57
2023/09/03 05:51:03;;;;;;;39.45;27.08;;;14.80;99.90;;;;;;5016288;28;20045;-58
2023/09/03 05:53:30;;;;;;;42.28;27.92;;;14.80;99.90;;;;;;5018962;28;20042;-56
2023/09/03 05:56:12;;;;;;;48.28;30.58;;;14.70;99.90;;;;;;5013473;28;20037;-57
2023/09/03 05:58:38;;;;;;;48.22;29.67;;;14.80;99.90;;;;;;5012205;28;20042;-58
2023/09/03 06:01:05;;;;;;;69.63;33.97;;;14.90;99.90;;;;;;5017780;28;20034;-57
2023/09/03 06:03:31;;;;;;;51.70;33.83;;;15.10;99.90;;;;;;5015371;28;20943;-57
2023/09/03 06:06:04;;;;;;;62.10;36.05;;;15.30;99.90;;;;;;5014970;28;20056;-56
2023/09/03 06:08:30;;;;;;;65.80;37.50;;;15.50;99.90;;;;;;5014619;28;20052;-58
2023/09/03 06:10:56;;;;;;;53.28;34.38;;;15.20;99.90;;;;;;5016266;28;20114;-58
2023/09/03 06:13:29;;;;;;;59.42;37.70;;;15.20;99.90;;;;;;5021129;28;20037;-57
2023/09/03 06:15:55;;;;;;;63.78;37.30;;;15.20;99.90;;;;;;5025728;28;20045;-57
2023/09/03 06:18:21;;;;;;;60.55;38.10;;;15.30;99.90;;;;;;5013228;28;20053;-57
2023/09/03 06:20:47;;;;;;;61.13;37.63;;;15.30;99.90;;;;;;5021988;28;20033;-56
2023/09/03 06:23:18;;;;;;;63.47;38.05;;;15.40;99.90;;;;;;5019327;28;20038;-56
2023/09/03 06:25:45;;;;;;;65.68;39.20;;;15.50;99.90;;;;;;5023739;28;20150;-57
2023/09/03 06:28:10;;;;;;;66.45;40.05;;;15.60;99.90;;;;;;5023139;28;20033;-57
2023/09/03 06:30:36;;;;;;;59.97;39.10;;;15.70;99.90;;;;;;5017664;28;20455;-56
2023/09/03 06:33:02;;;;;;;66.22;38.38;;;15.70;99.90;;;;;;5017550;28;20068;-56
2023/09/03 06:35:28;;;;;;;62.15;39.72;;;15.90;99.90;;;;;;5022737;28;20037;-56
2023/09/03 06:37:55;;;;;;;64.00;39.03;;;15.90;99.90;;;;;;5020499;28;20037;-57
2023/09/03 06:40:21;;;;;;;70.18;41.40;;;15.90;99.90;;;;;;5011571;28;20102;-57
2023/09/03 06:42:47;;;;;;;66.63;40.22;;;15.90;99.90;;;;;;5024349;28;20492;-57
2023/09/03 06:45:12;;;;;;;68.22;41.20;;;15.80;99.90;;;;;;4997617;28;20033;-57
2023/09/03 06:47:38;;;;;;;71.88;41.28;;;15.80;99.90;;;;;;5017927;28;20131;-56
2023/09/03 06:50:05;;;;;;;68.95;40.95;;;15.80;99.90;;;;;;5000029;28;20040;-56
2023/09/03 06:52:31;;;;;;;69.18;42.55;;;16.00;99.90;;;;;;5016144;28;20029;-57
2023/09/03 06:54:56;;;;;;;68.88;42.17;;;16.10;99.90;;;;;;5017068;28;20041;-55
2023/09/03 06:57:24;;;;;;;75.80;44.63;;;16.10;99.90;;;;;;5021264;28;20044;-55
2023/09/03 06:59:49;;;;;;;70.22;42.97;;;16.20;99.90;;;;;;5020743;28;20033;-56
2023/09/03 07:02:15;;;;;;;74.45;45.05;;;16.30;99.90;;;;;;5017696;28;20034;-55
2023/09/03 07:04:41;;;;;;;71.85;43.80;;;16.30;99.90;;;;;;5013975;28;20041;-56
2023/09/03 07:07:06;;;;;;;77.50;45.92;;;16.30;99.90;;;;;;5021701;28;20084;-57
2023/09/03 07:09:33;;;;;;;68.80;44.28;;;16.40;99.90;;;;;;5017604;28;20132;-56
2023/09/03 07:12:00;;;;;;;78.03;46.22;;;16.40;99.90;;;;;;5014052;28;20376;-56
2023/09/03 07:14:25;;;;;;;73.47;46.63;;;16.50;99.90;;;;;;5012582;28;20037;-56
2023/09/03 07:16:51;;;;;;;78.40;47.55;;;16.50;99.90;;;;;;5018807;28;20056;-57
2023/09/03 07:19:17;;;;;;;84.30;47.03;;;16.60;99.90;;;;;;5022800;28;20140;-57
2023/09/03 07:21:43;;;;;;;86.03;48.05;;;16.60;99.90;;;;;;5020104;28;20497;-56
2023/09/03 07:24:09;;;;;;;84.70;50.28;;;16.80;99.90;;;;;;5018689;28;20883;-55
2023/09/03 07:26:34;;;;;;;81.78;51.33;;;16.90;99.90;;;;;;5024081;28;20505;-57
2023/09/03 07:29:00;;;;;;;91.93;51.83;;;;;;;;;;5021747;28;20063;-57
2023/09/03 07:31:26;;;;;;;88.68;53.30;;;17.10;99.90;;;;;;5020788;28;20389;-57
2023/09/03 07:33:51;;;;;;;95.85;51.85;;;17.20;99.90;;;;;;5023264;28;20387;-56
2023/09/03 07:36:17;;;;;;;87.00;50.75;;;17.10;99.90;;;;;;5022839;28;20370;-57
2023/09/03 07:38:42;;;;;;;86.45;49.95;;;17.10;99.90;;;;;;5022943;28;20110;-57
2023/09/03 07:41:08;;;;;;;80.40;48.03;;;17.20;99.90;;;;;;5018702;28;20061;-56
2023/09/03 07:43:34;;;;;;;84.88;49.05;;;17.10;99.90;;;;;;5023463;28;20028;-56
2023/09/03 07:46:00;;;;;;;78.85;47.67;;;17.30;99.90;;;;;;5021294;28;20551;-57
2023/09/03 07:48:26;;;;;;;80.47;48.28;;;17.30;99.90;;;;;;5023363;28;20132;-57
2023/09/03 07:50:52;;;;;;;84.45;48.33;;;17.50;99.90;;;;;;5006656;28;20619;-57
2023/09/03 07:53:18;;;;;;;86.97;49.17;;;17.60;99.90;;;;;;5017352;28;20029;-56
2023/09/03 07:55:44;;;;;;;78.18;48.97;;;17.70;99.90;;;;;;5019442;28;20106;-57
2023/09/03 07:58:09;;;;;;;78.07;47.80;;;17.50;99.90;;;;;;5019729;28;20038;-57
2023/09/03 08:00:35;;;;;;;78.30;45.40;;;17.70;99.90;;;;;;5005737;28;20057;-56
2023/09/03 08:03:01;;;;;;;76.20;45.70;;;17.80;99.90;;;;;;5019159;28;20069;-57
2023/09/03 08:05:26;;;;;;;89.40;49.70;;;18.20;99.90;;;;;;5022061;28;20172;-57
2023/09/03 08:07:52;;;;;;;80.05;46.03;;;17.80;99.90;;;;;;5019036;28;20397;-56
2023/09/03 08:10:19;;;;;;;79.53;45.75;;;;;;;;;;5019351;28;20472;-57
2023/09/03 08:12:45;;;;;;;73.07;45.42;;;17.80;99.90;;;;;;5020147;28;20073;-57
2023/09/03 08:15:11;;;;;;;71.85;44.33;;;18.00;99.90;;;;;;5017268;28;20052;-56
2023/09/03 08:17:37;;;;;;;71.13;44.35;;;18.20;99.90;;;;;;5020278;28;20105;-57
2023/09/03 08:20:06;;;;;;;74.05;44.03;;;18.10;99.90;;;;;;5016088;28;20038;-57
2023/09/03 08:22:31;;;;;;;68.03;41.30;;;18.20;99.90;;;;;;5012103;28;20427;-57
2023/09/03 08:24:57;;;;;;;67.57;42.85;;;18.30;99.90;;;;;;5009840;28;20044;-57
2023/09/03 08:27:22;;;;;;;71.00;44.03;;;18.50;99.90;;;;;;5016778;28;20041;-57
2023/09/03 08:29:48;;;;;;;70.35;45.15;;;18.70;99.90;;;;;;5015632;28;20129;-55
2023/09/03 08:32:13;;;;;;;67.80;41.40;;;18.70;99.90;;;;;;5012232;28;20038;-57
2023/09/03 08:34:39;;;;;;;71.57;42.90;;;18.80;99.90;;;;;;5020051;28;20038;-56
2023/09/03 08:37:04;;;;;;;65.05;42.78;;;18.90;99.90;;;;;;5023057;28;20172;-57
2023/09/03 08:39:30;;;;;;;64.93;39.10;;;18.80;99.90;;;;;;5020040;28;20107;-58
2023/09/03 08:41:57;;;;;;;62.75;41.17;;;18.90;99.90;;;;;;5018553;28;20036;-58
2023/09/03 08:44:42;;;;;;;64.57;41.58;;;18.90;99.90;;;;;;5017213;28;20056;-57
2023/09/03 08:47:11;;;;;;;61.05;38.22;;;19.00;99.90;;;;;;5019575;28;20045;-56
2023/09/03 08:49:39;;;;;;;59.35;38.15;;;19.10;99.90;;;;;;5023581;28;20104;-56
2023/09/03 08:52:06;;;;;;;58.28;37.97;;;19.00;99.90;;;;;;5018177;28;20045;-57
2023/09/03 08:54:32;;;;;;;65.75;41.58;;;19.20;99.90;;;;;;5001344;28;20070;-57
2023/09/03 08:56:59;;;;;;;63.88;40.15;;;19.30;99.90;;;;;;5019956;28;20049;-57
2023/09/03 08:59:25;;;;;;;60.60;39.65;;;19.30;99.90;;;;;;5019530;28;20117;-57
2023/09/03 09:01:55;;;;;;;57.53;38.63;;;19.30;99.90;;;;;;5021239;28;20037;-57
2023/09/03 09:04:22;;;;;;;61.40;37.22;;;19.30;99.90;;;;;;5021761;28;20175;-56
2023/09/03 09:06:49;;;;;;;52.20;34.30;;;19.30;99.90;;;;;;5016491;28;20061;-56
2023/09/03 09:09:15;;;;;;;55.55;37.45;;;19.30;99.90;;;;;;5018044;28;20053;-56
2023/09/03 09:11:48;;;;;;;54.35;36.17;;;19.40;99.90;;;;;;5021551;28;20037;-57
2023/09/03 09:14:33;;;;;;;53.00;34.85;;;19.50;99.90;;;;;;5018510;28;20462;-57
2023/09/03 09:16:59;;;;;;;49.17;33.55;;;19.50;99.90;;;;;;4999309;28;20053;-58
2023/09/03 09:19:24;;;;;;;50.08;34.42;;;19.40;99.90;;;;;;5016201;28;20045;-57
2023/09/03 09:21:51;;;;;;;50.42;34.60;;;19.40;99.90;;;;;;5022341;28;20652;-58
2023/09/03 09:24:16;;;;;;;47.30;32.10;;;19.60;99.90;;;;;;5020547;28;20042;-56
2023/09/03 09:26:42;;;;;;;53.88;33.90;;;19.80;99.90;;;;;;5015537;28;20213;-57
2023/09/03 09:29:08;;;;;;;54.40;33.53;;;19.90;99.90;;;;;;4995698;28;20074;-56
2023/09/03 09:31:34;;;;;;;49.75;32.13;;;20.00;99.90;;;;;;5013546;28;20127;-56
2023/09/03 09:34:20;;;;;;;46.20;31.38;;;20.10;99.90;;;;;;5012917;28;20497;-57
2023/09/03 09:36:54;;;;;;;49.63;35.08;;;20.00;99.90;;;;;;5011486;28;20029;-56
2023/09/03 09:39:19;;;;;;;47.38;30.77;;;20.20;99.90;;;;;;5012101;28;20037;-57
2023/09/03 09:41:46;;;;;;;45.25;30.35;;;20.10;99.90;;;;;;5008673;28;20053;-58
2023/09/03 09:44:11;;;;;;;35.65;26.10;;;20.20;99.90;;;;;;5015999;28;20481;-57
2023/09/03 09:46:38;;;;;;;46.30;30.25;;;20.40;99.90;;;;;;4999054;28;20044;-56
2023/09/03 09:49:04;;;;;;;51.25;30.95;;;20.30;99.90;;;;;;5012842;28;20046;-58
2023/09/03 09:51:30;;;;;;;42.20;28.67;;;20.40;99.90;;;;;;5021887;28;20310;-57
2023/09/03 09:54:03;;;;;;;40.40;27.05;;;20.50;99.90;;;;;;5020512;28;20164;-56
2023/09/03 09:56:31;;;;;;;42.10;27.50;;;20.50;99.90;;;;;;5018622;28;20033;-57
2023/09/03 09:58:57;;;;;;;37.92;23.95;;;20.50;99.90;;;;;;5020823;28;20042;-57
2023/09/03 10:01:25;;;;;;;40.47;23.55;;;20.50;99.90;;;;;;5025093;28;20064;-57
2023/09/03 10:03:51;;;;;;;39.65;26.08;;;20.70;99.90;;;;;;5019440;28;20662;-55
2023/09/03 10:06:18;;;;;;;37.78;24.50;;;20.70;99.90;;;;;;5022821;28;20080;-56
2023/09/03 10:08:45;;;;;;;34.92;23.42;;;20.60;99.90;;;;;;5017388;28;20196;-58
2023/09/03 10:11:11;;;;;;;31.75;19.63;;;20.70;99.90;;;;;;5018633;28;20389;-57
2023/09/03 10:13:41;;;;;;;39.95;25.02;;;20.60;99.90;;;;;;5016311;28;20123;-57
2023/09/03 10:16:10;;;;;;;42.10;23.67;;;20.70;99.90;;;;;;5020384;28;20037;-56
2023/09/03 10:18:48;;;;;;;35.47;20.15;;;20.80;99.90;;;;;;5023945;28;20522;-58
2023/09/03 10:21:19;;;;;;;32.88;18.83;;;20.90;99.90;;;;;;5019656;28;20091;-57
2023/09/03 10:23:49;;;;;;;32.00;18.80;;;20.90;99.90;;;;;;5019360;28;20045;-57
2023/09/03 10:26:24;;;;;;;23.83;14.95;;;21.00;99.90;;;;;;5017182;28;20037;-57
2023/09/03 10:28:55;;;;;;;31.13;17.33;;;21.10;99.90;;;;;;5009294;28;20117;-58
2023/09/03 10:31:23;;;;;;;25.17;14.77;;;21.00;99.90;;;;;;5013006;28;20048;-57
2023/09/03 10:33:49;;;;;;;25.08;11.95;;;21.10;99.90;;;;;;5016842;28;20064;-57
2023/09/03 10:36:17;;;;;;;23.15;11.70;;;21.10;99.90;;;;;;5020526;28;20076;-57
2023/09/03 10:38:43;;;;;;;20.20;11.10;;;21.20;99.90;;;;;;5019645;28;20085;-57
2023/09/03 10:41:35;;;;;;;15.52;8.45;;;21.10;99.90;;;;;;5022623;28;20124;-57
2023/09/03 10:44:15;;;;;;;18.90;11.98;;;21.10;99.90;;;;;;5021598;28;20374;-56
2023/09/03 10:47:01;;;;;;;14.88;9.85;;;21.10;99.90;;;;;;5013601;28;20049;-57
2023/09/03 10:49:47;;;;;;;23.17;11.55;;;21.30;99.90;;;;;;5024862;28;20397;-56
2023/09/03 10:52:39;;;;;;;20.65;12.75;;;21.50;99.90;;;;;;5024650;28;20038;-56
2023/09/03 10:55:20;;;;;;;20.90;11.90;;;21.50;99.90;;;;;;5014860;28;20041;-58
2023/09/03 10:57:48;;;;;;;19.80;10.73;;;21.50;99.90;;;;;;5016299;28;20048;-57
2023/09/03 11:00:20;;;;;;;17.10;9.70;;;21.60;99.90;;;;;;5020145;28;20129;-57
2023/09/03 11:02:46;;;;;;;21.25;9.38;;;21.70;99.90;;;;;;5025682;28;20481;-57
2023/09/03 11:05:20;;;;;;;20.40;9.85;;;21.60;99.90;;;;;;5018920;28;20045;-56
2023/09/03 11:07:47;;;;;;;11.93;6.03;;;21.60;99.90;;;;;;5020902;28;20378;-56
2023/09/03 11:10:25;;;;;;;20.23;9.63;;;21.60;99.90;;;;;;4998025;28;20094;-56
2023/09/03 11:12:52;;;;;;;11.63;6.95;;;21.60;99.90;;;;;;5014436;28;20052;-56
2023/09/03 11:15:18;;;;;;;10.45;5.85;;;21.70;99.90;;;;;;5015071;28;20084;-57
2023/09/03 11:17:51;;;;;;;18.00;11.55;;;21.80;99.90;;;;;;5014826;28;21014;-58
2023/09/03 11:20:30;;;;;;;14.18;7.53;;;21.80;99.90;;;;;;5016507;28;20053;-57
2023/09/03 11:22:55;;;;;;;11.95;7.00;;;21.90;99.90;;;;;;5018871;28;20064;-57
2023/09/03 11:25:37;;;;;;;14.13;8.35;;;21.80;99.90;;;;;;5017503;28;20806;-56
2023/09/03 11:28:04;;;;;;;13.70;8.48;;;21.80;99.90;;;;;;5017570;28;20045;-54
2023/09/03 11:30:30;;;;;;;15.15;8.30;;;21.80;99.90;;;;;;5014722;28;20771;-56
2023/09/03 11:32:57;;;;;;;14.40;7.30;;;21.90;99.90;;;;;;5018470;28;20030;-58
2023/09/03 11:35:22;;;;;;;9.27;5.35;;;22.00;99.90;;;;;;4997453;28;20041;-57
2023/09/03 11:37:50;;;;;;;11.05;6.60;;;22.20;99.90;;;;;;5017730;28;20044;-56
2023/09/03 11:40:16;;;;;;;12.23;7.50;;;22.20;99.90;;;;;;5020582;28;20036;-57
2023/09/03 11:42:44;;;;;;;10.73;6.43;;;22.00;99.90;;;;;;5020757;28;20458;-57
2023/09/03 11:45:11;;;;;;;14.57;6.85;;;22.10;99.90;;;;;;5021084;28;20036;-58
2023/09/03 11:47:48;;;;;;;12.50;7.93;;;22.30;99.90;;;;;;5021540;28;20507;-58
2023/09/03 11:50:14;;;;;;;11.85;6.88;;;22.30;99.90;;;;;;5015627;28;20038;-57
2023/09/03 11:52:46;;;;;;;10.15;6.10;;;22.30;99.90;;;;;;5017917;28;20335;-57
2023/09/03 11:55:12;;;;;;;17.55;10.60;;;22.30;99.90;;;;;;5019632;28;20025;-56
2023/09/03 11:57:38;;;;;;;13.40;8.00;;;22.30;99.90;;;;;;5017959;28;20639;-57
2023/09/03 12:00:06;;;;;;;14.75;9.30;;;22.30;99.90;;;;;;5017073;28;20026;-56
2023/09/03 12:02:33;;;;;;;19.98;9.80;;;22.30;99.90;;;;;;5019788;28;20036;-57
2023/09/03 12:04:58;;;;;;;17.45;10.88;;;22.20;99.90;;;;;;5021896;28;20458;-57
2023/09/03 12:07:24;;;;;;;18.23;12.07;;;22.30;99.90;;;;;;5022935;28;20043;-55
2023/09/03 12:09:50;;;;;;;22.27;13.50;;;22.40;99.90;;;;;;5023931;28;20086;-58
2023/09/03 12:12:17;;;;;;;23.75;15.25;;;22.40;99.90;;;;;;5021638;28;20068;-57
2023/09/03 12:14:43;;;;;;;27.33;14.77;;;22.40;99.90;;;;;;5022277;28;20029;-56
2023/09/03 12:17:09;;;;;;;22.55;13.27;;;22.30;99.90;;;;;;5019346;28;20041;-57
2023/09/03 12:19:41;;;;;;;28.08;14.95;;;22.40;99.90;;;;;;5023475;28;20396;-57
2023/09/03 12:22:08;;;;;;;21.67;13.40;;;22.30;99.90;;;;;;5021791;28;20129;-57
2023/09/03 12:24:34;;;;;;;21.13;14.00;;;22.40;99.90;;;;;;5022964;28;20346;-55
2023/09/03 12:27:03;;;;;;;26.40;15.55;;;22.40;99.90;;;;;;5019192;28;20037;-56
2023/09/03 12:29:36;;;;;;;31.17;13.82;;;22.20;99.90;;;;;;5020383;28;20579;-56
2023/09/03 12:32:02;;;;;;;27.35;16.10;;;22.30;99.90;;;;;;5021902;28;20144;-52